Wakeman, Ohio
Current Conditions -  °F | °C
As of 10:53 AM on Thursday 23 Oct 2014 (Local Time) from KLPR Reporting Station
Broken Clouds Broken Clouds  
Wind Chill: 52°   Ceiling: 1700
Heat Index: 52°   Visibility: 10mi
Dew Point: 44°   Wind: 9mph
Humidity: 74%   Direction: 330°NNW
Pressure: 30.23"   Gusts: NA
Location:  41.25°N, 82.4°W
Report Text: KLPR 231453Z AUTO 33008KT 10SM BKN017 11/07 A3023 RMK AO2 SLP240 T01110067 53006 TSNO $
Loading
Personal Weather Stations






























Interactive Weather Map
Tropical Storm Tracking
New forecast layout! Learn more

10-Day Weather Forecast

Advertisements
Track Severe Weather on mobile